Bluffton, SC

5:27 PM EDT en Mayo 27, 2017 (GMT -0400)
May River Old Town Bluffton | | Change Station

Alt 0 ft 32.23 °N, 80.86 °W | Updated 0 second ago

Despejado
Despejado
88.7 ° F
Sensación térmica 91 ° F
N
9.0
Viento Variable Viento desde OSO
Gusts 16.0 mph

Hoy
Alta -- | Baja -- ° F
--% Posibilidad de precipitaciones
Ayer
Alta -- | Baja -- ° F
Precip. -- pul
Presión 29.99 pul
Visibilidad 10.0 Millas
Nubes Despejado
Índice de calor 91 ° F
Punto de rocío 66 ° F
Humedad 47%
Precipitaciones 0.00 pul
Espesor de la nieve No disponible.
6:19 AM 8:22 PM
Creciente, 6% visible
METAR KHXD 271950Z 16010KT 10SM SKC 30/21 A2999
Presión 29.99 pul
Visibilidad 10.0 Millas
Nubes Despejado
Índice de calor 91 ° F
Punto de rocío 66 ° F
Humedad 47%
Precipitaciones 0.00 pul
Espesor de la nieve No disponible.
6:19 AM 8:22 PM
Creciente, 6% visible
METAR KHXD 271950Z 16010KT 10SM SKC 30/21 A2999

Get Severe Weather Alerts

Thanks for signing up!

Be on the lookout for a verification email in your inbox.

You'll start receiving the daily forecast at 6 AM.

×

10-Day Weather Forecast

Almanac

Astronomía

May. 27, 2017 Salida Puesta
Hora real
Crepúsculo civil
Crepúsculo náutico
Crepúsculo astronómico
Luna
Horas de luz
Horas de luz
Tomorrow will be .
, % of the Moon is Illuminated

Extremos de hoy

Máximos del estado Bajos del estado

Community

WunderPhotos

Category 6

Welcome to Category 6. This is the collective home for Weather Underground's featured writeups by Dr. Jeff Masters (right), Bob Henson (left), Chris Burt, and other regular contributors.

Nearby

Calidad del aire

  Calidad del aire Índice AQ Contaminante
Not available.

Grosos de nieve

Estación Profundido Altura

Actividad de terremotos

Ciudad Distance Mag. Tiempo y dato
Magnitud mínima muestra es 2,5.

Temperaturas de aguas costeras

Lugar Temperatura

Stations

Estaciones meteorológicas cercanas

Ubicación de la estación Temp. Vientos helados Punto de rocío Humedad Viento Precip. Alt Actualizado Tipo
                   

Watches & Warnings

There are currently no watches in effect.